Terminal Aerodrome Forecast
Issued by NWS Blacksburg, VA

Current Version | Previous Version | Text Only | Print | Product List | Glossary On
Versions: 1 2 3 4 5 6 7 8 9 10 11 12 13 14 15 16 17 18 19 20 21 22 23 24 25 26 27 28 29 30 31 32 33 34
000
FTUS41 KRNK 281400 AAA
TAFDAN
TAF AMD
KDAN 281400Z 2814/2912 23003KT 6SM BR SCT010 BKN060
     FM281800 22005KT P6SM -SHRA VCTS OVC050CB
      TEMPO 2820/2823 2SM TSRA OVC035CB
     FM290200 22004KT P6SM VCSH OVC040
     FM290700 29004KT 4SM BR OVC015=

USA.gov is the U.S. government's official web portal to all federal, state and local government web resources and services.